CYGR

Îles-de-la-Madeleine Airport

Îles-de-la-Madeleine, Quebec, Canada
METAR CYGR 161400Z 32014KT 15SM -SN BKN025 BKN270 M06/M10 A2960 RMK SC6CI1 SLP026
Observed Flight Rules
Dec-16 @ 14:00 UTC (47 minutes ago) Marginal Visual Flight Rules
Wind Visibility Clouds Conditions
320° at 14 knots 15 miles
  • Broken at 2,500' AGL
  • Broken at 27,000' AGL
  • Light Snow
Temperatures Readings
Current -6°C / 21°F
Dewpoint -10°C / 14°F
Humidity 74%
Altimeter 29.6" Hg
Pressure 1002.6 hPa
Elevation 10
METAR CYGR 161400Z 32014KT 15SM -SN BKN025 BKN270 M06/M10 A2960 RMK SC6CI1 SLP026
Observed Flight Rules
Dec-16 @ 14:00 UTC
(47 minutes ago)
MVFR
Wind Visibility
320° at 14 knots 15 miles
Clouds
  • Broken at 2,500' AGL
  • Broken at 27,000' AGL
Conditions
  • Light Snow
Temperature Dewpoint
-6°C / 21°F -10°C / 14°F
Humidity Altimeter Pressure
74% 29.6" Hg 1002.6 hPa